createdAt,value
2022-10-17T00:01:13.028Z,4.65
2022-10-17T00:02:35.423Z,4.20
2022-10-17T00:03:58.757Z,4.40
2022-10-17T00:05:21.135Z,4.50
2022-10-17T00:06:44.478Z,4.68
2022-10-17T00:08:07.850Z,5.43
2022-10-17T00:09:31.209Z,4.80
2022-10-17T00:10:57.464Z,4.72
2022-10-17T00:12:20.804Z,4.68
2022-10-17T00:13:44.212Z,4.82
2022-10-17T00:15:08.005Z,4.53
2022-10-17T00:16:36.488Z,4.35
2022-10-17T00:17:59.392Z,4.55
2022-10-17T00:19:22.720Z,4.88
2022-10-17T00:20:46.080Z,5.93
2022-10-17T00:22:09.459Z,5.35
2022-10-17T00:23:31.891Z,5.07
2022-10-17T00:24:55.434Z,5.95
2022-10-17T00:26:18.195Z,5.22
2022-10-17T00:27:42.962Z,4.95
2022-10-17T00:29:05.410Z,5.40
2022-10-17T00:30:28.798Z,4.93
2022-10-17T00:31:54.990Z,4.47
2022-10-17T00:33:18.315Z,5.30
2022-10-17T00:34:40.669Z,4.80
2022-10-17T00:36:05.644Z,4.93
2022-10-17T00:37:28.131Z,5.30
2022-10-17T00:38:53.925Z,5.30
2022-10-17T00:40:16.325Z,5.15
2022-10-17T00:41:39.664Z,5.35
2022-10-17T00:43:03.016Z,5.10
2022-10-17T00:45:01.662Z,5.43
2022-10-17T00:46:27.411Z,5.13
2022-10-17T00:47:54.931Z,5.55
2022-10-17T00:49:17.288Z,5.55
2022-10-17T00:50:42.535Z,5.57
2022-10-17T00:52:08.380Z,5.28
2022-10-17T00:53:31.751Z,5.35
2022-10-17T00:54:58.145Z,5.70
2022-10-17T00:56:21.838Z,6.20
2022-10-17T00:57:46.094Z,5.63
2022-10-17T00:59:10.780Z,5.80
2022-10-17T01:00:33.303Z,5.97
2022-10-17T01:02:03.299Z,6.38
2022-10-17T01:03:28.051Z,5.20
2022-10-17T01:04:52.236Z,5.30
2022-10-17T01:06:15.620Z,5.88
2022-10-17T01:07:39.296Z,5.97
2022-10-17T01:09:02.750Z,6.15
2022-10-17T01:10:30.372Z,5.38
2022-10-17T01:11:56.769Z,5.90
2022-10-17T01:13:24.347Z,5.53
2022-10-17T01:14:53.017Z,5.82
2022-10-17T01:16:19.306Z,5.70
2022-10-17T01:17:52.127Z,5.68
2022-10-17T01:19:35.553Z,5.05
2022-10-17T01:21:15.652Z,5.50
2022-10-17T01:22:43.733Z,4.97
2022-10-17T01:24:34.639Z,4.85
2022-10-17T01:26:02.267Z,4.30
2022-10-17T01:27:49.367Z,4.57
2022-10-17T01:29:27.202Z,5.47
2022-10-17T01:30:59.619Z,5.35
2022-10-17T01:32:27.493Z,4.80
2022-10-17T01:33:58.633Z,4.97
2022-10-17T01:35:24.048Z,4.68
2022-10-17T01:36:52.443Z,4.90
2022-10-17T01:38:20.278Z,4.15
2022-10-17T01:39:47.805Z,4.82
2022-10-17T01:41:18.181Z,4.30
2022-10-17T01:42:46.419Z,4.65
2022-10-17T01:44:12.492Z,4.43
2022-10-17T01:45:39.695Z,3.95
2022-10-17T01:47:05.707Z,4.22
2022-10-17T01:48:34.929Z,4.00
2022-10-17T01:50:02.528Z,4.45
2022-10-17T01:51:29.529Z,4.70
2022-10-17T01:52:55.241Z,4.70
2022-10-17T01:54:21.759Z,4.30
2022-10-17T01:55:46.964Z,4.38
2022-10-17T01:57:16.552Z,4.97
2022-10-17T01:58:41.515Z,4.85
2022-10-17T02:00:07.877Z,4.85
2022-10-17T02:01:32.273Z,4.18
2022-10-17T02:02:58.528Z,5.00
2022-10-17T02:04:22.217Z,4.47
2022-10-17T02:05:46.053Z,4.95
2022-10-17T02:07:09.293Z,4.13
2022-10-17T02:08:42.826Z,4.75
2022-10-17T02:10:11.630Z,4.63
2022-10-17T02:11:33.982Z,4.40
2022-10-17T02:13:02.029Z,4.82
2022-10-17T02:14:33.507Z,4.30
2022-10-17T02:16:14.165Z,4.22
2022-10-17T02:17:44.342Z,4.47
2022-10-17T02:19:26.711Z,4.47
2022-10-17T02:20:53.455Z,4.28
2022-10-17T02:22:22.412Z,4.90
2022-10-17T02:23:50.549Z,4.32
2022-10-17T02:25:19.220Z,4.32
2022-10-17T02:26:46.712Z,4.28
2022-10-17T02:28:19.746Z,4.53
2022-10-17T02:29:50.141Z,3.72
2022-10-17T02:31:17.959Z,3.90
2022-10-17T02:32:46.703Z,4.60
2022-10-17T02:34:17.694Z,4.63
2022-10-17T02:35:43.976Z,4.07
2022-10-17T02:37:09.428Z,4.78
2022-10-17T02:38:32.632Z,4.05
2022-10-17T02:39:56.486Z,4.60
2022-10-17T02:41:21.194Z,4.45
2022-10-17T02:42:46.167Z,4.13
2022-10-17T02:44:09.409Z,4.35
2022-10-17T02:45:35.980Z,4.35
2022-10-17T02:47:12.747Z,4.10
2022-10-17T02:48:40.023Z,4.45
2022-10-17T02:50:05.471Z,3.83
2022-10-17T02:51:32.673Z,4.32
2022-10-17T02:52:59.180Z,4.28
2022-10-17T02:54:25.643Z,4.10
2022-10-17T02:55:51.744Z,3.85
2022-10-17T02:57:19.780Z,4.15
2022-10-17T02:58:44.960Z,4.13
2022-10-17T03:00:10.979Z,3.58
2022-10-17T03:01:33.651Z,4.20
2022-10-17T03:02:57.274Z,4.13
2022-10-17T03:04:20.698Z,4.72
2022-10-17T03:05:45.406Z,3.83
2022-10-17T03:07:08.761Z,4.05
2022-10-17T03:08:32.208Z,4.18
2022-10-17T03:09:54.583Z,4.20
2022-10-17T03:11:17.978Z,4.28
2022-10-17T03:12:41.332Z,4.05
2022-10-17T03:14:03.760Z,4.07
2022-10-17T03:15:27.251Z,4.32
2022-10-17T03:16:49.639Z,4.28
2022-10-17T03:18:12.998Z,3.47
2022-10-17T03:19:35.390Z,3.97
2022-10-17T03:21:00.147Z,3.95
2022-10-17T03:22:25.916Z,4.10
2022-10-17T03:23:49.298Z,3.63
2022-10-17T03:25:11.697Z,3.90
2022-10-17T03:26:35.207Z,4.25
2022-10-17T03:27:59.513Z,4.18
2022-10-17T03:29:23.082Z,3.95
2022-10-17T03:30:45.479Z,4.05
2022-10-17T03:32:08.936Z,3.95
2022-10-17T03:33:31.380Z,3.05
2022-10-17T03:34:54.775Z,3.97
2022-10-17T03:36:22.771Z,4.10
2022-10-17T03:37:45.237Z,3.40
2022-10-17T03:39:08.756Z,3.85
2022-10-17T03:40:32.080Z,3.92
2022-10-17T03:41:54.468Z,4.10
2022-10-17T03:43:17.868Z,3.53
2022-10-17T03:44:41.243Z,3.50
2022-10-17T03:46:04.227Z,3.40
2022-10-17T03:47:27.822Z,3.95
2022-10-17T03:48:51.444Z,3.25
2022-10-17T03:50:15.659Z,3.75
2022-10-17T03:51:40.435Z,3.97
2022-10-17T03:53:02.792Z,3.38
2022-10-17T03:54:26.189Z,3.60
2022-10-17T03:55:49.597Z,3.85
2022-10-17T03:57:12.953Z,4.03
2022-10-17T03:58:35.388Z,3.60
2022-10-17T03:59:58.748Z,3.80
2022-10-17T04:01:21.911Z,4.00
2022-10-17T04:02:45.342Z,3.58
2022-10-17T04:04:08.058Z,4.13
2022-10-17T04:05:31.572Z,3.83
2022-10-17T04:06:56.298Z,4.00
2022-10-17T04:08:19.683Z,4.35
2022-10-17T04:09:43.090Z,3.67
2022-10-17T04:11:06.829Z,3.90
2022-10-17T04:12:30.673Z,3.95
2022-10-17T04:13:55.583Z,4.03
2022-10-17T04:15:18.069Z,3.95
2022-10-17T04:16:41.420Z,4.10
2022-10-17T04:19:32.387Z,3.97
2022-10-17T04:20:56.152Z,3.75
2022-10-17T04:22:20.868Z,3.90
2022-10-17T04:23:44.240Z,3.83
2022-10-17T04:25:07.275Z,3.38
2022-10-17T04:26:30.627Z,3.55
2022-10-17T04:27:53.976Z,3.60
2022-10-17T04:29:17.380Z,3.67
2022-10-17T04:30:42.326Z,3.92
2022-10-17T04:32:08.585Z,4.20
2022-10-17T04:33:31.170Z,4.50
2022-10-17T04:34:54.577Z,4.15
2022-10-17T04:36:19.787Z,3.97
2022-10-17T04:37:44.579Z,3.63
2022-10-17T04:39:08.022Z,3.92
2022-10-17T04:40:31.412Z,3.55
2022-10-17T04:41:56.412Z,4.20
2022-10-17T04:43:18.861Z,3.53
2022-10-17T04:44:42.297Z,3.85
2022-10-17T04:46:08.780Z,4.40
2022-10-17T04:47:32.114Z,3.83
2022-10-17T04:48:55.880Z,3.90
2022-10-17T04:50:19.912Z,3.78
2022-10-17T04:51:43.980Z,4.45
2022-10-17T04:53:07.727Z,3.47
2022-10-17T04:54:31.098Z,3.63
2022-10-17T04:55:53.676Z,3.63
2022-10-17T04:57:17.337Z,4.45
2022-10-17T04:58:41.244Z,4.10
2022-10-17T05:00:05.430Z,4.10
2022-10-17T05:01:29.121Z,3.70
2022-10-17T05:02:52.008Z,4.15
2022-10-17T05:04:15.349Z,3.78
2022-10-17T05:05:38.611Z,3.95
2022-10-17T05:07:02.124Z,3.65
2022-10-17T05:08:26.226Z,3.63
2022-10-17T05:09:49.696Z,4.25
2022-10-17T05:11:19.172Z,3.90
2022-10-17T05:12:42.534Z,3.42
2022-10-17T05:14:07.082Z,3.78
2022-10-17T05:15:30.448Z,4.03
2022-10-17T05:16:53.852Z,3.83
2022-10-17T05:18:17.191Z,3.88
2022-10-17T05:19:39.661Z,3.72
2022-10-17T05:21:05.099Z,3.95
2022-10-17T05:22:28.763Z,4.35
2022-10-17T05:23:54.442Z,4.43
2022-10-17T05:25:17.992Z,4.35
2022-10-17T05:26:41.407Z,4.18
2022-10-17T05:28:04.849Z,4.13
2022-10-17T05:29:28.270Z,4.30
2022-10-17T05:30:51.836Z,4.25
2022-10-17T05:32:15.805Z,3.40
2022-10-17T05:33:40.136Z,4.15
2022-10-17T05:35:04.188Z,4.38
2022-10-17T05:36:29.562Z,4.38
2022-10-17T05:37:51.935Z,4.22
2022-10-17T05:39:19.553Z,4.57
2022-10-17T05:40:42.917Z,4.20
2022-10-17T05:42:05.349Z,4.32
2022-10-17T05:43:29.549Z,3.92
2022-10-17T05:44:53.035Z,4.82
2022-10-17T05:46:15.376Z,4.57
2022-10-17T05:47:38.749Z,3.85
2022-10-17T05:49:03.586Z,4.40
2022-10-17T05:50:31.103Z,4.57
2022-10-17T05:51:54.548Z,4.15
2022-10-17T05:53:18.253Z,4.07
2022-10-17T05:54:43.002Z,4.70
2022-10-17T05:56:09.358Z,4.53
2022-10-17T05:57:32.795Z,4.78
2022-10-17T05:59:00.751Z,4.35
2022-10-17T06:00:24.520Z,4.18
2022-10-17T06:01:47.927Z,3.67
2022-10-17T06:03:13.519Z,4.55
2022-10-17T06:04:37.940Z,3.97
2022-10-17T06:06:05.548Z,3.80
2022-10-17T06:07:27.967Z,4.10
2022-10-17T06:08:51.321Z,4.70
2022-10-17T06:10:17.389Z,3.83
2022-10-17T06:11:40.948Z,4.50
2022-10-17T06:13:04.608Z,4.15
2022-10-17T06:14:27.973Z,3.70
2022-10-17T06:15:51.356Z,4.13
2022-10-17T06:17:16.269Z,3.60
2022-10-17T06:18:40.009Z,4.13
2022-10-17T06:20:03.537Z,4.35
2022-10-17T06:21:27.978Z,3.50
2022-10-17T06:22:51.453Z,3.67
2022-10-17T06:24:15.027Z,3.80
2022-10-17T06:25:39.721Z,3.25
2022-10-17T06:27:04.314Z,3.15
2022-10-17T06:28:29.393Z,3.50
2022-10-17T06:29:52.857Z,3.25
2022-10-17T06:31:21.738Z,3.60
2022-10-17T06:32:45.111Z,3.70
2022-10-17T06:34:07.526Z,3.33
2022-10-17T06:35:30.881Z,3.65
2022-10-17T06:36:54.769Z,3.40
2022-10-17T06:38:18.097Z,3.50
2022-10-17T06:39:41.570Z,3.30
2022-10-17T06:41:08.649Z,3.30
2022-10-17T06:42:32.084Z,3.20
2022-10-17T06:43:55.498Z,3.03
2022-10-17T06:45:18.923Z,3.50
2022-10-17T06:46:42.497Z,3.45
2022-10-17T06:48:06.342Z,3.17
2022-10-17T06:49:29.834Z,3.42
2022-10-17T06:50:52.202Z,3.08
2022-10-17T06:52:17.073Z,3.58
2022-10-17T06:53:41.365Z,3.25
2022-10-17T06:55:05.623Z,3.60
2022-10-17T06:56:30.367Z,3.38
2022-10-17T06:57:56.040Z,3.33
2022-10-17T06:59:19.388Z,3.35
2022-10-17T07:00:42.892Z,3.42
2022-10-17T07:02:06.545Z,3.53
2022-10-17T07:03:29.050Z,3.40
2022-10-17T07:04:52.475Z,3.50
2022-10-17T07:06:16.311Z,3.15
2022-10-17T07:07:43.061Z,3.03
2022-10-17T07:09:08.306Z,3.05
2022-10-17T07:10:31.620Z,3.53
2022-10-17T07:11:56.303Z,3.58
2022-10-17T07:13:19.725Z,3.35
2022-10-17T07:14:43.072Z,3.30
2022-10-17T07:16:06.811Z,2.97
2022-10-17T07:17:30.544Z,3.03
2022-10-17T07:18:54.303Z,3.17
2022-10-17T07:20:18.308Z,2.95
2022-10-17T07:21:41.726Z,2.95
2022-10-17T07:23:05.336Z,2.83
2022-10-17T07:24:29.016Z,3.00
2022-10-17T07:25:52.473Z,3.05
2022-10-17T07:27:17.215Z,2.78
2022-10-17T07:28:43.274Z,2.67
2022-10-17T07:30:08.007Z,2.47
2022-10-17T07:31:31.375Z,2.65
2022-10-17T07:32:55.249Z,2.70
2022-10-17T07:34:18.818Z,2.72
2022-10-17T07:35:42.552Z,3.05
2022-10-17T07:37:06.970Z,2.65
2022-10-17T07:38:30.762Z,2.50
2022-10-17T07:39:54.098Z,2.78
2022-10-17T07:41:21.636Z,2.30
2022-10-17T07:42:46.775Z,2.38
2022-10-17T07:44:10.187Z,2.80
2022-10-17T07:45:36.240Z,2.60
2022-10-17T07:46:59.585Z,2.17
2022-10-17T07:48:24.361Z,2.50
2022-10-17T07:49:47.756Z,2.25
2022-10-17T07:51:11.838Z,2.60
2022-10-17T07:52:35.428Z,2.38
2022-10-17T07:53:58.831Z,2.55
2022-10-17T07:55:22.222Z,2.42
2022-10-17T07:56:50.416Z,2.50
2022-10-17T07:58:16.055Z,2.72
2022-10-17T07:59:39.794Z,2.60
2022-10-17T08:01:04.049Z,2.83
2022-10-17T08:02:28.824Z,2.50
2022-10-17T08:03:52.597Z,2.78
2022-10-17T08:05:16.097Z,2.65
2022-10-17T08:06:39.496Z,2.22
2022-10-17T08:08:02.919Z,3.00
2022-10-17T08:09:26.471Z,2.65
2022-10-17T08:10:49.829Z,2.55
2022-10-17T08:12:14.582Z,2.50
2022-10-17T08:13:40.226Z,2.40
2022-10-17T08:15:02.702Z,2.53
2022-10-17T08:16:26.059Z,2.45
2022-10-17T08:17:49.468Z,2.17
2022-10-17T08:19:13.057Z,2.30
2022-10-17T08:20:36.633Z,2.63
2022-10-17T08:22:01.115Z,2.38
2022-10-17T08:23:24.449Z,2.50
2022-10-17T08:24:47.883Z,2.20
2022-10-17T08:26:13.478Z,2.13
2022-10-17T08:27:37.379Z,2.13
2022-10-17T08:29:02.190Z,2.20
2022-10-17T08:30:25.882Z,2.70
2022-10-17T08:31:52.416Z,2.10
2022-10-17T08:33:19.595Z,2.03
2022-10-17T08:34:42.999Z,2.08
2022-10-17T08:36:07.765Z,2.20
2022-10-17T08:37:32.675Z,2.75
2022-10-17T08:38:56.390Z,2.05
2022-10-17T08:40:23.967Z,2.20
2022-10-17T08:41:59.366Z,2.50
2022-10-17T08:43:35.713Z,1.98
2022-10-17T08:45:15.917Z,2.35
2022-10-17T08:46:42.296Z,2.40
2022-10-17T08:48:09.780Z,2.30
2022-10-17T08:49:38.483Z,2.10
2022-10-17T08:51:05.131Z,2.28
2022-10-17T08:52:37.575Z,2.42
2022-10-17T08:54:05.408Z,2.60
2022-10-17T08:55:34.138Z,2.08
2022-10-17T08:56:57.569Z,2.15
2022-10-17T08:58:22.514Z,2.40
2022-10-17T08:59:47.008Z,2.08
2022-10-17T09:01:24.352Z,1.90
2022-10-17T09:02:56.148Z,2.20
2022-10-17T09:04:42.603Z,2.17
2022-10-17T09:06:18.712Z,1.98
2022-10-17T09:07:47.892Z,2.20
2022-10-17T09:09:21.159Z,1.80
2022-10-17T09:10:53.455Z,2.60
2022-10-17T09:12:19.961Z,2.90
2022-10-17T09:13:52.105Z,2.35
2022-10-17T09:15:45.273Z,2.42
2022-10-17T09:17:19.983Z,1.92
2022-10-17T09:18:47.069Z,2.05
2022-10-17T09:20:15.220Z,2.10
2022-10-17T09:21:43.480Z,1.92
2022-10-17T09:23:12.102Z,1.95
2022-10-17T09:24:41.233Z,2.60
2022-10-17T09:26:04.752Z,2.38
2022-10-17T09:27:34.133Z,2.28
2022-10-17T09:29:00.548Z,2.15
2022-10-17T09:30:45.252Z,2.30
2022-10-17T09:32:16.438Z,1.90
2022-10-17T09:33:53.843Z,2.00
2022-10-17T09:35:18.623Z,2.33
2022-10-17T09:36:44.008Z,2.05
2022-10-17T09:38:08.495Z,1.95
2022-10-17T09:39:33.047Z,2.40
2022-10-17T09:40:57.425Z,2.05
2022-10-17T09:42:23.051Z,2.22
2022-10-17T09:43:47.758Z,2.15
2022-10-17T09:45:19.425Z,2.47
2022-10-17T09:46:45.600Z,1.98
2022-10-17T09:48:14.650Z,1.75
2022-10-17T09:49:39.536Z,2.30
2022-10-17T09:51:15.126Z,2.65
2022-10-17T09:52:48.634Z,2.15
2022-10-17T09:54:18.582Z,2.08
2022-10-17T09:55:44.006Z,2.40
2022-10-17T09:57:09.136Z,2.40
2022-10-17T09:58:42.979Z,2.45
2022-10-17T10:00:08.414Z,2.30
2022-10-17T10:01:34.774Z,2.33
2022-10-17T10:03:15.790Z,1.92
2022-10-17T10:05:03.276Z,2.03
2022-10-17T10:06:26.319Z,2.00
2022-10-17T10:08:04.071Z,2.00
2022-10-17T10:09:29.601Z,2.30
2022-10-17T10:11:00.487Z,2.15
2022-10-17T10:12:26.000Z,2.15
2022-10-17T10:13:50.548Z,1.80
2022-10-17T10:15:34.540Z,2.03
2022-10-17T10:16:58.056Z,1.92
2022-10-17T10:18:37.017Z,2.20
2022-10-17T10:20:00.442Z,2.03
2022-10-17T10:21:24.952Z,2.47
2022-10-17T10:23:13.140Z,2.50
2022-10-17T10:24:36.508Z,3.90
2022-10-17T10:26:02.544Z,2.22
2022-10-17T10:27:34.168Z,2.08
2022-10-17T10:29:00.421Z,2.22
2022-10-17T10:30:29.173Z,1.88
2022-10-17T10:31:53.370Z,2.00
2022-10-17T10:33:16.771Z,2.28
2022-10-17T10:34:49.157Z,2.58
2022-10-17T10:36:12.516Z,2.22
2022-10-17T10:37:39.592Z,2.08
2022-10-17T10:39:15.451Z,2.00
2022-10-17T10:40:45.865Z,2.08
2022-10-17T10:42:23.512Z,1.95
2022-10-17T10:43:48.153Z,2.30
2022-10-17T10:47:09.009Z,1.90
2022-10-17T10:48:35.633Z,1.80
2022-10-17T10:50:27.797Z,1.92
2022-10-17T10:51:51.597Z,1.67
2022-10-17T10:53:26.877Z,2.15
2022-10-17T10:54:56.667Z,2.45
2022-10-17T10:56:22.500Z,1.85
2022-10-17T10:57:47.087Z,2.03
2022-10-17T10:59:15.141Z,2.33
2022-10-17T11:00:39.944Z,1.65
2022-10-17T11:02:11.658Z,1.70
2022-10-17T11:03:49.944Z,2.00
2022-10-17T11:05:19.793Z,1.73
2022-10-17T11:06:46.509Z,1.88
2022-10-17T11:08:16.599Z,2.17
2022-10-17T11:09:48.683Z,1.88
2022-10-17T11:11:18.161Z,2.10
2022-10-17T11:14:17.136Z,1.90
2022-10-17T11:15:46.491Z,1.80
2022-10-17T11:17:25.287Z,2.28
2022-10-17T11:19:02.861Z,1.90
2022-10-17T11:20:34.086Z,1.75
2022-10-17T11:22:12.626Z,2.30
2022-10-17T11:23:41.142Z,2.08
2022-10-17T11:25:14.301Z,1.73
2022-10-17T11:26:43.025Z,1.98
2022-10-17T11:28:13.641Z,2.05
2022-10-17T11:29:39.183Z,2.45
2022-10-17T11:31:07.197Z,2.30
2022-10-17T11:32:35.941Z,2.60
2022-10-17T11:34:02.604Z,2.20
2022-10-17T11:35:29.089Z,1.90
2022-10-17T11:36:56.108Z,1.98
2022-10-17T11:38:25.498Z,2.00
2022-10-17T11:39:53.047Z,2.13
2022-10-17T11:41:20.422Z,2.38
2022-10-17T11:42:49.571Z,1.90
2022-10-17T11:44:20.041Z,1.88
2022-10-17T11:45:45.850Z,1.90
2022-10-17T11:47:20.040Z,2.13
2022-10-17T11:48:51.223Z,2.05
2022-10-17T11:52:31.595Z,2.10
2022-10-17T11:54:08.166Z,2.13
2022-10-17T11:55:32.769Z,2.05
2022-10-17T11:57:04.359Z,2.10
2022-10-17T11:58:34.241Z,2.58
2022-10-17T12:00:09.164Z,2.05
2022-10-17T12:01:38.587Z,2.30
2022-10-17T12:03:07.803Z,2.13
2022-10-17T12:04:43.679Z,1.42
2022-10-17T12:06:16.288Z,1.70
2022-10-17T12:07:46.542Z,2.03
2022-10-17T12:09:16.798Z,1.70
2022-10-17T12:10:47.197Z,2.20
2022-10-17T12:12:11.069Z,2.10
2022-10-17T12:13:51.793Z,2.90
2022-10-17T12:15:32.096Z,2.28
2022-10-17T12:16:55.530Z,2.05
2022-10-17T12:18:19.253Z,2.10
2022-10-17T12:19:42.631Z,2.40
2022-10-17T12:21:06.071Z,2.35
2022-10-17T12:22:29.557Z,2.33
2022-10-17T12:23:54.623Z,2.40
2022-10-17T12:25:20.772Z,2.25
2022-10-17T12:26:44.182Z,3.38
2022-10-17T12:28:16.528Z,1.88
2022-10-17T12:29:39.960Z,2.42
2022-10-17T12:31:06.566Z,2.22
2022-10-17T12:32:36.827Z,2.10
2022-10-17T12:34:19.527Z,2.17
2022-10-17T12:35:42.884Z,2.10
2022-10-17T12:37:06.224Z,2.00
2022-10-17T12:38:29.717Z,2.30
2022-10-17T12:39:54.411Z,2.33
2022-10-17T12:41:17.815Z,2.25
2022-10-17T12:42:51.484Z,1.95
2022-10-17T12:44:39.013Z,2.42
2022-10-17T12:46:03.204Z,2.05
2022-10-17T12:47:48.175Z,2.15
2022-10-17T12:49:45.480Z,1.98
2022-10-17T12:51:34.108Z,2.33
2022-10-17T12:53:00.076Z,2.25
2022-10-17T12:54:22.711Z,2.10
2022-10-17T12:55:47.907Z,2.60
2022-10-17T12:57:19.488Z,2.63
2022-10-17T12:58:45.664Z,2.22
2022-10-17T13:00:18.450Z,2.15
2022-10-17T13:01:43.709Z,2.90
2022-10-17T13:03:13.524Z,2.65
2022-10-17T13:04:38.152Z,2.38
2022-10-17T13:06:03.280Z,2.15
2022-10-17T13:07:26.935Z,2.38
2022-10-17T13:08:56.851Z,2.15
2022-10-17T13:10:24.451Z,2.08
2022-10-17T13:11:51.927Z,2.00
2022-10-17T13:13:18.235Z,2.25
2022-10-17T13:14:43.436Z,2.70
2022-10-17T13:16:07.495Z,2.40
2022-10-17T13:17:31.280Z,2.25
2022-10-17T13:18:55.319Z,2.10
2022-10-17T13:20:29.020Z,2.10
2022-10-17T13:21:59.942Z,2.22
2022-10-17T13:23:26.149Z,2.80
2022-10-17T13:24:50.200Z,2.20
2022-10-17T13:26:19.955Z,2.00
2022-10-17T13:27:45.042Z,2.38
2022-10-17T13:29:13.943Z,2.13
2022-10-17T13:30:38.505Z,2.15
2022-10-17T13:32:03.982Z,1.98
2022-10-17T13:33:34.061Z,1.90
2022-10-17T13:35:17.103Z,2.03
2022-10-17T13:36:40.858Z,2.08
2022-10-17T13:38:07.434Z,1.90
2022-10-17T13:39:52.756Z,2.08
2022-10-17T13:41:35.252Z,2.47
2022-10-17T13:43:04.144Z,1.70
2022-10-17T13:44:29.852Z,2.20
2022-10-17T13:45:55.342Z,1.80
2022-10-17T13:47:26.179Z,2.00
2022-10-17T13:48:49.697Z,2.08
2022-10-17T13:50:42.918Z,1.90
2022-10-17T13:52:07.623Z,2.15
2022-10-17T13:53:33.201Z,2.22
2022-10-17T13:54:57.191Z,1.77
2022-10-17T13:56:28.529Z,2.08
2022-10-17T13:57:52.926Z,1.90
2022-10-17T13:59:24.782Z,1.92
2022-10-17T14:00:49.132Z,2.03
2022-10-17T14:02:16.828Z,2.20
2022-10-17T14:03:48.149Z,1.98
2022-10-17T14:05:20.043Z,2.50
2022-10-17T14:06:47.607Z,2.08
2022-10-17T14:08:22.887Z,1.90
2022-10-17T14:09:48.295Z,1.90
2022-10-17T14:11:17.314Z,2.00
2022-10-17T14:12:48.121Z,1.80
2022-10-17T14:14:21.625Z,1.90
2022-10-17T14:15:47.543Z,1.85
2022-10-17T14:17:15.146Z,2.10
2022-10-17T14:18:40.558Z,1.95
2022-10-17T14:21:50.572Z,2.10
2022-10-17T14:23:31.374Z,2.50
2022-10-17T14:24:58.028Z,1.70
2022-10-17T14:26:25.799Z,1.80
2022-10-17T14:27:55.574Z,2.35
2022-10-17T14:29:28.426Z,2.40
2022-10-17T14:30:57.078Z,2.03
2022-10-17T14:32:22.044Z,1.83
2022-10-17T14:33:50.675Z,1.70
2022-10-17T14:35:40.761Z,3.30
2022-10-17T14:37:02.201Z,2.40
2022-10-17T14:38:26.117Z,2.10
2022-10-17T14:39:51.177Z,2.05
2022-10-17T14:41:41.859Z,1.92
2022-10-17T14:43:07.566Z,2.50
2022-10-17T14:44:33.260Z,2.35
2022-10-17T14:45:59.288Z,2.20
2022-10-17T14:49:21.721Z,2.05
2022-10-17T14:51:09.116Z,2.15
2022-10-17T14:52:33.487Z,2.60
2022-10-17T14:54:06.429Z,2.40
2022-10-17T14:55:31.688Z,2.65
2022-10-17T14:56:54.988Z,2.35
2022-10-17T14:58:19.419Z,2.63
2022-10-17T14:59:59.648Z,2.15
2022-10-17T15:01:25.931Z,2.42
2022-10-17T15:02:51.958Z,2.58
2022-10-17T15:04:15.376Z,2.80
2022-10-17T15:05:38.733Z,2.30
2022-10-17T15:07:02.164Z,2.20
2022-10-17T15:08:25.852Z,2.10
2022-10-17T15:09:50.712Z,2.13
2022-10-17T15:11:14.281Z,1.80
2022-10-17T15:12:37.834Z,2.40
2022-10-17T15:14:01.258Z,2.20
2022-10-17T15:15:26.016Z,2.33
2022-10-17T15:16:49.413Z,2.42
2022-10-17T15:18:15.711Z,2.25
2022-10-17T15:19:38.740Z,2.28
2022-10-17T15:21:05.355Z,2.80
2022-10-17T15:22:31.520Z,2.25
2022-10-17T15:23:55.321Z,2.38
2022-10-17T15:25:18.797Z,2.13
2022-10-17T15:26:42.202Z,2.97
2022-10-17T15:28:06.044Z,3.00
2022-10-17T15:29:29.404Z,2.70
2022-10-17T15:30:54.184Z,2.80
2022-10-17T15:32:17.702Z,1.80
2022-10-17T15:33:40.426Z,3.10
2022-10-17T15:35:03.786Z,2.40
2022-10-17T15:36:28.434Z,2.60
2022-10-17T15:37:51.878Z,2.90
2022-10-17T15:39:14.244Z,2.88
2022-10-17T15:40:38.311Z,2.70
2022-10-17T15:42:01.726Z,2.47
2022-10-17T15:43:25.111Z,2.47
2022-10-17T15:44:49.851Z,2.63
2022-10-17T15:46:18.462Z,2.13
2022-10-17T15:47:43.067Z,3.13
2022-10-17T15:49:08.528Z,2.67
2022-10-17T15:50:32.438Z,2.97
2022-10-17T15:51:55.790Z,3.20
2022-10-17T15:53:19.319Z,2.40
2022-10-17T15:54:42.657Z,3.17
2022-10-17T15:56:06.694Z,2.92
2022-10-17T15:57:32.287Z,2.75
2022-10-17T15:58:56.037Z,2.50
2022-10-17T16:00:23.047Z,2.90
2022-10-17T16:01:48.623Z,2.90
2022-10-17T16:03:12.045Z,3.92
2022-10-17T16:04:35.525Z,3.20
2022-10-17T16:05:58.887Z,4.28
2022-10-17T16:07:22.383Z,3.55
2022-10-17T16:08:45.791Z,2.80
2022-10-17T16:10:10.870Z,2.85
2022-10-17T16:11:36.367Z,2.60
2022-10-17T16:12:59.787Z,3.00
2022-10-17T16:14:23.167Z,2.90
2022-10-17T16:15:45.595Z,2.83
2022-10-17T16:17:11.943Z,2.45
2022-10-17T16:18:35.263Z,2.83
2022-10-17T16:19:58.593Z,2.72
2022-10-17T16:21:25.208Z,2.28
2022-10-17T16:22:49.293Z,2.67
2022-10-17T16:24:13.134Z,2.33
2022-10-17T16:25:37.166Z,2.65
2022-10-17T16:27:00.643Z,2.22
2022-10-17T16:28:24.019Z,2.90
2022-10-17T16:29:47.370Z,2.13
2022-10-17T16:31:22.228Z,2.47
2022-10-17T16:32:47.736Z,2.00
2022-10-17T16:34:13.118Z,2.70
2022-10-17T16:35:37.639Z,2.40
2022-10-17T16:37:01.202Z,2.30
2022-10-17T16:38:24.587Z,2.50
2022-10-17T16:39:52.206Z,2.28
2022-10-17T16:41:27.304Z,2.30
2022-10-17T16:42:50.742Z,2.80
2022-10-17T16:44:14.551Z,2.35
2022-10-17T16:45:38.062Z,2.55
2022-10-17T16:47:01.524Z,2.58
2022-10-17T16:48:29.655Z,2.85
2022-10-17T16:49:53.396Z,3.17
2022-10-17T16:51:18.334Z,2.80
2022-10-17T16:52:42.091Z,3.00
2022-10-17T16:54:05.832Z,2.60
2022-10-17T16:55:29.340Z,3.38
2022-10-17T16:56:52.702Z,4.55
2022-10-17T16:58:16.030Z,3.88
2022-10-17T16:59:39.545Z,3.70
2022-10-17T17:01:03.816Z,3.95
2022-10-17T17:02:27.253Z,3.13
2022-10-17T17:03:52.729Z,3.80
2022-10-17T17:05:16.648Z,3.35
2022-10-17T17:06:40.053Z,3.60
2022-10-17T17:08:03.993Z,3.05
2022-10-17T17:09:27.437Z,4.68
2022-10-17T17:10:51.099Z,3.83
2022-10-17T17:12:14.649Z,3.40
2022-10-17T17:13:38.272Z,3.95
2022-10-17T17:15:01.605Z,3.45
2022-10-17T17:16:26.536Z,3.22
2022-10-17T17:17:53.583Z,2.78
2022-10-17T17:19:20.426Z,2.83
2022-10-17T17:20:42.854Z,3.70
2022-10-17T17:22:06.220Z,2.85
2022-10-17T17:23:28.917Z,3.35
2022-10-17T17:24:52.310Z,4.05
2022-10-17T17:26:17.448Z,2.92
2022-10-17T17:27:39.787Z,3.38
2022-10-17T17:29:03.521Z,3.15
2022-10-17T17:30:26.959Z,3.78
2022-10-17T17:31:50.638Z,3.33
2022-10-17T17:33:14.472Z,3.55
2022-10-17T17:34:39.556Z,3.55
2022-10-17T17:36:04.469Z,3.55
2022-10-17T17:37:28.262Z,3.90
2022-10-17T17:38:54.976Z,3.67
2022-10-17T17:40:18.481Z,3.67
2022-10-17T17:41:42.841Z,3.70
2022-10-17T17:43:05.327Z,3.30
2022-10-17T17:44:28.674Z,3.63
2022-10-17T17:45:52.111Z,5.55
2022-10-17T17:47:15.547Z,4.75
2022-10-17T17:48:39.004Z,3.67
2022-10-17T17:50:04.031Z,3.30
2022-10-17T17:51:29.357Z,3.35
2022-10-17T17:52:52.917Z,5.50
2022-10-17T17:54:16.445Z,3.72
2022-10-17T17:55:42.399Z,3.40
2022-10-17T17:57:05.874Z,4.45
2022-10-17T17:58:28.225Z,3.85
2022-10-17T17:59:52.275Z,5.30
2022-10-17T18:01:19.669Z,3.97
2022-10-17T18:02:44.395Z,4.40
2022-10-17T18:04:09.522Z,3.97
2022-10-17T18:05:34.369Z,4.53
2022-10-17T18:06:58.085Z,4.78
2022-10-17T18:08:21.701Z,3.97
2022-10-17T18:09:45.339Z,4.10
2022-10-17T18:11:10.475Z,3.97
2022-10-17T18:12:34.428Z,4.07
2022-10-17T18:13:58.844Z,3.38
2022-10-17T18:15:22.252Z,4.10
2022-10-17T18:16:45.699Z,4.20
2022-10-17T18:18:09.051Z,4.45
2022-10-17T18:19:32.627Z,5.10
2022-10-17T18:20:56.517Z,4.32
2022-10-17T18:22:19.884Z,3.78
2022-10-17T18:23:44.952Z,3.97
2022-10-17T18:25:09.149Z,3.92
2022-10-17T18:26:32.660Z,5.15
2022-10-17T18:27:55.046Z,4.78
2022-10-17T18:29:18.576Z,4.28
2022-10-17T18:30:42.035Z,4.20
2022-10-17T18:32:05.513Z,4.30
2022-10-17T18:33:28.883Z,3.83
2022-10-17T18:34:52.499Z,4.18
2022-10-17T18:36:17.449Z,4.35
2022-10-17T18:39:05.826Z,4.50
2022-10-17T18:40:29.187Z,4.60
2022-10-17T18:41:52.650Z,4.35
2022-10-17T18:43:16.233Z,4.70
2022-10-17T18:44:39.658Z,4.43
2022-10-17T18:46:05.112Z,4.70
2022-10-17T18:47:29.531Z,4.13
2022-10-17T18:48:53.339Z,4.32
2022-10-17T18:50:16.835Z,5.53
2022-10-17T18:51:44.058Z,5.05
2022-10-17T18:53:07.419Z,5.57
2022-10-17T18:54:33.332Z,5.07
2022-10-17T18:55:55.933Z,5.43
2022-10-17T18:57:21.496Z,5.50
2022-10-17T18:58:47.678Z,5.20
2022-10-17T19:00:11.303Z,5.07
2022-10-17T19:01:34.904Z,4.55
2022-10-17T19:02:58.312Z,5.28
2022-10-17T19:04:20.810Z,4.70
2022-10-17T19:05:45.235Z,4.68
2022-10-17T19:07:11.010Z,5.45
2022-10-17T19:08:34.497Z,5.28
2022-10-17T19:09:57.963Z,5.38
2022-10-17T19:11:24.273Z,5.55
2022-10-17T19:12:47.624Z,4.85
2022-10-17T19:14:13.859Z,4.90
2022-10-17T19:15:36.407Z,5.13
2022-10-17T19:17:00.614Z,5.40
2022-10-17T19:18:23.998Z,5.75
2022-10-17T19:19:50.020Z,4.68
2022-10-17T19:21:16.010Z,5.70
2022-10-17T19:22:42.864Z,4.65